Ship Status Report: callsign BATFR34

sailwx.info

Track history (hours):
 
Tides and Currents Weather Stations Pressure Air Temp Water Temp Dewpoint Dewpoint Depression Visibility Wind Speed Wind Dir Waves Ship Positions

Callsign BATFR34 (name unknown)

Last reported at 2017-Aug-29 17:00 UTC. Time now 2017-Dec-14 13:22 UTC.
Position N 47°48' W 004°18'.
Warning: this ship's position is months out of date.

Wind from 330 at 20 knots

Barometer 1013.5 mb
Air temperature 18.9 ° C
Water temperature 19.2 ° C

Date/timePositionNaut miles runAvg speedWind from/ knotsBaromVisibWave heightAir tempDewpointWater temp
2017-Aug-29 17:00N 47°48' W 004°18'1010.1 330 / 201013.5 18.9 19.2
2017-Aug-29 16:00N 47°42' W 004°30'8 8.1 330 / 231013.5 17.4 19.4
2017-Aug-29 15:00N 47°42' W 004°42'8 8.1 330 / 271014.0 17.2 19.2
2017-Aug-29 14:00N 47°42' W 004°54'4 4.0 330 / 241014.3 16.4 18.4
2017-Aug-29 13:00N 47°42' W 005°00'7 7.2 330 / 211014.9 15.9 17.4
2017-Aug-29 12:00N 47°36' W 005°06'0 0.0 340 / 191015.3 2.2 15.9 17.4
2017-Aug-29 11:00N 47°36' W 005°06'4 4.0 340 / 251015.6 16.2 19.0
2017-Aug-29 10:00N 47°36' W 005°12'0 0.0 350 / 191015.6 16.7 19.2
2017-Aug-29 09:00N 47°36' W 005°12'4 4.0 360 / 191015.2 2.2 17.0 18.9
2017-Aug-29 08:00N 47°36' W 005°18'4 4.0 010 / 191014.8 16.9 18.9
2017-Aug-29 07:00N 47°36' W 005°24'0 0.0 1015.3 16.7 19.2
2017-Aug-29 06:00N 47°36' W 005°24'4 4.0 010 / 221015.3 16.9 19.4
2017-Aug-29 05:00N 47°36' W 005°30'0 0.0 350 / 251015.1 17.2 19.4
2017-Aug-29 04:00N 47°36' W 005°30'4 4.0 360 / 191015.4 17.4 19.5
2017-Aug-29 03:00N 47°36' W 005°36'0 0.0 010 / 181015.1 17.9 19.7
2017-Aug-29 02:00N 47°36' W 005°36'4 4.0 030 / 161015.3 18.0 19.7
2017-Aug-29 01:00N 47°36' W 005°30'4 4.0 020 / 191015.4 17.9 19.7
2017-Aug-29 00:00N 47°36' W 005°24'0 0.0 020 / 171015.7 17.9 19.7
2017-Aug-28 23:00N 47°36' W 005°24'4 4.0 350 / 211015.8 18.2 19.7
2017-Aug-28 22:00N 47°36' W 005°30'0 0.0 340 / 191015.8 18.2 19.9
2017-Aug-28 21:00N 47°36' W 005°30'7 7.2 360 / 131015.8 18.4 19.7
2017-Aug-28 20:00N 47°42' W 005°36'0 0.0 010 / 141015.8 18.4 19.9
2017-Aug-28 19:00N 47°42' W 005°36'4 4.0 020 / 121015.7 18.4 19.9
2017-Aug-28 18:00N 47°42' W 005°42'6 6.0 020 / 161015.4 2.2 18.5 19.4
2017-Aug-28 17:00N 47°48' W 005°42'0 0.0 020 / 151015.6 18.5 19.4
2017-Aug-28 16:00N 47°48' W 005°42'0 0.0 030 / 141015.8 18.4 19.4
2017-Aug-28 15:00N 47°48' W 005°42'0 0.0 010 / 111016.4 2.2 18.7 19.4
2017-Aug-28 14:00N 47°48' W 005°42'6 6.0 020 / 101016.6 18.7 19.5
2017-Aug-28 13:00N 47°54' W 005°42'0 0.0 030 / 131016.4 18.4 19.5
2017-Aug-28 12:00N 47°54' W 005°42'6 6.0 020 / 141016.5 17.9 19.4
2017-Aug-28 11:00N 48°00' W 005°42'0 0.0 030 / 141016.6 17.9 19.4
2017-Aug-28 10:00N 48°00' W 005°42'6 6.0 040 / 141016.9 17.7 19.4
2017-Aug-28 09:00N 48°06' W 005°42'4 4.0 050 / 131017.0 2.2 17.7 19.2
2017-Aug-28 08:00N 48°06' W 005°48'0 0.0 020 / 141016.7 17.9 19.2
2017-Aug-28 07:00N 48°06' W 005°48'6 6.0 040 / 141016.4 17.9 19.2
2017-Aug-28 06:00N 48°00' W 005°48'4 4.0 040 / 141016.3 17.9 19.2
2017-Aug-28 05:00N 48°00' W 005°54'0 0.0 030 / 141016.0 17.9 19.2
2017-Aug-28 04:00N 48°00' W 005°54'6 6.0 030 / 131016.3 17.9 19.2
2017-Aug-28 03:00N 48°06' W 005°54'4 4.0 050 / 151016.5 17.9 19.4
2017-Aug-28 02:00N 48°06' W 005°48'7 7.2 040 / 151016.7 17.9 19.4
2017-Aug-28 01:00N 48°12' W 005°54'4 4.0 030 / 141017.2 17.9 19.4
2017-Aug-28 00:00N 48°12' W 005°48'6 6.0 030 / 111017.6 17.9 19.4
2017-Aug-27 23:00N 48°18' W 005°48'4 4.0 030 / 161017.5 17.7 19.4
2017-Aug-27 22:00N 48°18' W 005°54'6 6.0 030 / 151017.9 17.9 19.4
2017-Aug-27 21:00N 48°24' W 005°54'4 4.0 030 / 161017.8 17.9 19.4
2017-Aug-27 20:00N 48°24' W 006°00'4 4.0 030 / 161017.5 17.9 19.4
2017-Aug-27 19:00N 48°24' W 006°06'0 0.0 030 / 141017.4 18.2 19.4
2017-Aug-27 18:00N 48°24' W 006°06'7 7.2 040 / 141017.1 18.5 19.4
2017-Aug-27 17:00N 48°18' W 006°12'4 4.0 050 / 131017.5 18.4 19.4
2017-Aug-27 16:00N 48°18' W 006°06'0 0.0 050 / 141017.7 18.4 19.4
2017-Aug-27 15:00N 48°18' W 006°06'4 4.0 050 / 151018.1 2.2 20.4 19.4
2017-Aug-27 14:00N 48°18' W 006°00'4 4.0 030 / 161018.4 20.4 19.4
2017-Aug-27 13:00N 48°18' W 005°54'6 6.0 040 / 161018.3 22.5 19.4
2017-Aug-27 12:00N 48°24' W 005°54'4 4.0 030 / 111018.3 2.2 18.2 19.4
2017-Aug-27 11:00N 48°24' W 005°48'4 4.0 050 / 121018.2 17.7 19.4
2017-Aug-27 10:00N 48°24' W 005°54'6 6.0 020 / 131018.1 17.7 19.2
2017-Aug-27 09:00N 48°30' W 005°54'4 4.0 040 / 121017.6 17.5 19.2
2017-Aug-27 08:00N 48°30' W 006°00'4 4.0 080 / 111017.3 17.7 19.0
2017-Aug-27 07:00N 48°30' W 006°06'6 6.0 060 / 101017.4 17.7 19.0
2017-Aug-27 06:00N 48°24' W 006°06'4 4.0 060 / 81017.4 17.7 19.0
2017-Aug-27 05:00N 48°24' W 006°00'0 0.0 050 / 81017.4 17.5 19.2
2017-Aug-27 04:00N 48°24' W 006°00'6 6.0 040 / 101017.4 17.5 19.2
2017-Aug-27 03:00N 48°30' W 006°00'0 0.0 040 / 111018.0 21.0 19.2
2017-Aug-27 02:00N 48°30' W 006°00'6 6.0 050 / 131018.0 17.5 19.2
2017-Aug-27 01:00N 48°36' W 006°00'0 0.0 040 / 131018.0 17.4 19.2
2017-Aug-27 00:00N 48°36' W 006°00'0 0.0 030 / 121017.8 17.2 19.4
2017-Aug-26 23:00N 48°36' W 006°00'7 7.2 040 / 101017.5 17.2 19.4
2017-Aug-26 22:00N 48°42' W 006°06'6 6.0 050 / 121017.5 17.0 19.5
2017-Aug-26 21:00N 48°48' W 006°06'0 0.0 040 / 51017.9 16.9 19.2
2017-Aug-26 20:00N 48°48' W 006°06'4 4.0 070 / 51017.7 17.0 19.2
2017-Aug-26 19:00N 48°48' W 006°12'6 6.0 080 / 61017.3 17.2 19.4
2017-Aug-26 18:00N 48°42' W 006°12'4 4.0 080 / 71017.1 17.2 19.4
2017-Aug-26 17:00N 48°42' W 006°18'0 0.0 080 / 71017.0 17.4 19.5
2017-Aug-26 16:00N 48°42' W 006°18'7 7.2 110 / 71017.0 17.4 19.4
2017-Aug-26 15:00N 48°36' W 006°12'6 6.0 080 / 101017.2 17.2 19.5
2017-Aug-26 14:00N 48°42' W 006°12'4 4.0 080 / 81017.6 17.2 19.4
2017-Aug-26 13:00N 48°42' W 006°06'6 6.0 080 / 101017.4 17.0 19.4
2017-Aug-26 12:00N 48°48' W 006°06'0 0.0 080 / 81017.7 5.4 17.2 19.2
2017-Aug-26 11:00N 48°48' W 006°06'7 7.2 100 / 101017.7 16.9 19.0
2017-Aug-26 10:00N 48°54' W 006°00'0 0.0 090 / 111017.3 16.7 18.9
2017-Aug-26 09:00N 48°54' W 006°00'0 0.0 110 / 91016.9 5.4 16.7-15.118.9
2017-Aug-26 08:00N 48°54' W 006°00'7 7.2 100 / 81016.9 16.5 8.218.9
2017-Aug-26 07:00N 48°48' W 006°06'4 4.0 090 / 71016.4 16.416.218.9
2017-Aug-26 06:00N 48°48' W 006°12'0 0.0 100 / 71016.1 16.4 18.9
2017-Aug-26 05:00N 48°48' W 006°12'7 7.2 110 / 71016.0 16.4 19.0
2017-Aug-26 04:00N 48°42' W 006°18'0 0.0 110 / 61016.2 16.4 19.2
2017-Aug-26 03:00N 48°42' W 006°18'0 0.0 110 / 71016.4 16.5 19.2
2017-Aug-26 02:00N 48°42' W 006°18'6 6.0 130 / 71016.7 16.4 19.0
2017-Aug-26 01:00N 48°36' W 006°18'7 7.2 120 / 81016.9 16.4 19.2
2017-Aug-26 00:00N 48°42' W 006°12'0 0.0 120 / 81017.0 16.4 19.4
2017-Aug-25 23:00N 48°42' W 006°12'6 6.0 090 / 91017.1 16.4 19.4
2017-Aug-25 22:00N 48°48' W 006°12'0 0.0 100 / 71017.1 16.7 19.4
2017-Aug-25 21:00N 48°48' W 006°12'4 4.0 140 / 51017.1 16.7 19.2
2017-Aug-25 20:00N 48°48' W 006°18'6 6.0 130 / 51016.8 16.4 19.4
2017-Aug-25 19:00N 48°54' W 006°18'4 3.9 120 / 41016.5 16.5 19.4
2017-Aug-25 18:00N 48°54' W 006°24'7 7.2 150 / 51016.5 16.5 19.5
2017-Aug-25 17:00N 48°48' W 006°30'0 0.0 150 / 41016.5 17.2 19.4
2017-Aug-25 16:00N 48°48' W 006°30'7 7.2 170 / 51016.6 17.0 19.5
2017-Aug-25 15:00N 48°42' W 006°36'4 4.0 160 / 41016.8 18.0 19.4
2017-Aug-25 14:00N 48°42' W 006°30'4 4.0 160 / 51017.0 17.9 19.4
2017-Aug-25 13:00N 48°42' W 006°24'0 0.0 180 / 61017.3 17.0 19.4
2017-Aug-25 12:00N 48°42' W 006°24'4 4.0 140 / 71017.1 17.2 19.2
2017-Aug-25 11:00N 48°42' W 006°18'4 4.0 140 / 71017.4 17.0 19.2
2017-Aug-25 10:00N 48°42' W 006°12'7 7.2 130 / 71017.4 16.9 19.0
2017-Aug-25 09:00N 48°48' W 006°18'0 0.0 150 / 61017.2 16.7 18.9
2017-Aug-25 08:00N 48°48' W 006°18'0 0.0 180 / 51017.1 16.7 18.9
2017-Aug-25 07:00N 48°48' W 006°18'7 7.2 180 / 51016.8 16.7 18.9
2017-Aug-25 06:00N 48°54' W 006°24'7 7.2 180 / 51016.9 16.4 18.9
2017-Aug-25 05:00N 48°48' W 006°30'0 0.0 180 / 71016.9 16.7 18.9
2017-Aug-25 04:00N 48°48' W 006°30'6 6.0 150 / 71017.2 16.7 18.9
2017-Aug-25 03:00N 48°42' W 006°30'0 0.0 150 / 31017.5 16.4 19.0
2017-Aug-25 02:00N 48°42' W 006°30'4 4.0 150 / 31018.0 16.4 19.0
2017-Aug-25 01:00N 48°42' W 006°24'4 4.0 160 / 31018.3 16.5 18.9
2017-Aug-25 00:00N 48°42' W 006°18'0 0.0 160 / 31018.7 16.7 19.4
2017-Aug-24 23:00N 48°42' W 006°18'6 6.0 270 / 11018.9 16.7 19.4
2017-Aug-24 22:00N 48°48' W 006°18'0 0.0 260 / 31019.0 16.9 19.7
2017-Aug-24 21:00N 48°48' W 006°18'7 7.2 250 / 31019.1 16.9 19.5
2017-Aug-24 20:00N 48°54' W 006°24'0 0.0 250 / 31018.9 16.9 19.7
2017-Aug-24 19:00N 48°54' W 006°24'7 7.2 260 / 41018.5 17.717.519.7
2017-Aug-24 18:00N 48°48' W 006°30'0 0.0 240 / 51018.4 5.4 17.5 19.5
2017-Aug-24 17:00N 48°48' W 006°30'4 4.0 230 / 41018.6 18.518.419.2
2017-Aug-24 16:00N 48°48' W 006°36'6 6.0 220 / 31019.0 18.217.919.9
2017-Aug-24 15:00N 48°42' W 006°36'4 4.0 220 / 41019.4 5.4 17.4 19.7
2017-Aug-24 14:00N 48°42' W 006°30'0 0.0 320 / 21019.6 17.2 19.5
2017-Aug-24 13:00N 48°42' W 006°30'4 4.0 330 / 31019.8 17.417.219.4
2017-Aug-24 12:00N 48°42' W 006°24'4 4.0 330 / 41019.6 17.217.019.2
2017-Aug-24 11:00N 48°42' W 006°18'0 0.0 310 / 51019.6 17.517.418.9
2017-Aug-24 10:00N 48°42' W 006°18'6 6.0 300 / 61019.4 17.0 18.9
2017-Aug-24 09:00N 48°48' W 006°18'0 0.0 290 / 71019.1 17.4 18.9
2017-Aug-24 08:00N 48°48' W 006°18'0 0.0 290 / 71018.8 17.5 18.7
2017-Aug-24 07:00N 48°48' W 006°18'4 4.0 290 / 91018.3 16.9 18.7
2017-Aug-24 06:00N 48°48' W 006°24'0 0.0 290 / 81018.1 16.9 18.7
2017-Aug-24 05:00N 48°48' W 006°24'6 6.0 280 / 121017.9 16.7 18.7
2017-Aug-24 04:00N 48°42' W 006°24'0 0.0 230 / 81018.0 16.9 18.7
2017-Aug-24 03:00N 48°42' W 006°24'6 6.0 270 / 91018.4 16.9 18.7
2017-Aug-24 02:00N 48°36' W 006°24'0 0.0 250 / 81018.6 16.7 18.9
2017-Aug-24 01:00N 48°36' W 006°24'0 0.0 270 / 81018.9 16.9 18.9
2017-Aug-24 00:00N 48°36' W 006°24'4 4.0 270 / 81019.1 17.0 18.7
2017-Aug-23 23:00N 48°36' W 006°18'0 0.0 300 / 81019.2 17.0 18.9
2017-Aug-23 22:00N 48°36' W 006°18'7 7.2 280 / 81019.2 17.2 18.9
2017-Aug-23 21:00N 48°30' W 006°24'1010.0 280 / 91018.9 17.0 18.9
2017-Aug-23 20:00N 48°24' W 006°36'7 7.2 280 / 121018.6 17.2 19.0
2017-Aug-23 19:00N 48°18' W 006°42'1312.6 270 / 121018.3 17.2 19.0
2017-Aug-23 18:00N 48°06' W 006°48'7 7.2 270 / 91018.3 17.4 18.9
2017-Aug-23 17:00N 48°00' W 006°54'6 6.0 260 / 111018.4 17.7 18.7
2017-Aug-23 16:00N 47°54' W 006°54'0 0.0 250 / 91018.4 17.7 18.7
2017-Aug-23 15:00N 47°54' W 006°54'6 6.0 240 / 91018.8 5.4 17.7 18.5
2017-Aug-23 14:00N 47°48' W 006°54'0 0.0 240 / 71019.0 17.9 18.9
2017-Aug-23 13:00N 47°48' W 006°54'0 0.0 240 / 71019.0 17.7 18.7
2017-Aug-23 12:00N 47°48' W 006°54'4 4.0 250 / 71019.1 17.7 18.5
2017-Aug-23 11:00N 47°48' W 006°48'0 0.0 250 / 61019.1 17.7 18.5
2017-Aug-23 10:00N 47°48' W 006°48'0 0.0 270 / 81019.0 17.2 18.5
2017-Aug-23 09:00N 47°48' W 006°48'6 6.0 280 / 91018.4 17.0 18.4
2017-Aug-23 08:00N 47°54' W 006°48'6 6.0 290 / 121018.0 16.9 18.4
2017-Aug-23 07:00N 48°00' W 006°48'0 0.0 290 / 101017.1 16.9 18.4
2017-Aug-23 06:00N 48°00' W 006°48'6 6.0 270 / 101016.8 17.0 18.4
2017-Aug-23 05:00N 48°06' W 006°48'7 7.2 260 / 131016.3 16.9 18.5
2017-Aug-23 04:00N 48°00' W 006°54'0 0.0 250 / 161016.2 17.0 18.4
2017-Aug-23 03:00N 48°00' W 006°54'6 6.0 260 / 121016.3 17.0 18.4
2017-Aug-23 02:00N 47°54' W 006°54'0 0.0 260 / 121016.6 17.0 18.4
2017-Aug-23 01:00N 47°54' W 006°54'6 6.0 270 / 141016.8 16.9 18.4
2017-Aug-23 00:00N 47°48' W 006°54'0 0.0 270 / 121016.9 16.9 18.4
2017-Aug-22 23:00N 47°48' W 006°54'4 4.0 270 / 131016.9 17.0 18.2
2017-Aug-22 22:00N 47°48' W 006°48'0 0.0 300 / 131016.8 17.0 18.4
2017-Aug-22 21:00N 47°48' W 006°48'0 0.0 300 / 181016.4 18.4 18.5
2017-Aug-22 20:00N 47°48' W 006°48'6 6.0 300 / 191015.6 19.2 18.5
2017-Aug-22 19:00N 47°54' W 006°48'6 6.0 280 / 131015.0 17.5 18.5
2017-Aug-22 18:00N 48°00' W 006°48'0 0.0 280 / 131014.7 0.5 17.5 18.5
2017-Aug-22 17:00N 48°00' W 006°48'0 0.0 270 / 101014.3 17.9 18.5
2017-Aug-22 16:00N 48°00' W 006°48'6 6.0 260 / 141014.0 17.5 18.5
2017-Aug-22 15:00N 47°54' W 006°48'0 0.0 260 / 131014.1 2.2 17.5 18.5
2017-Aug-22 14:00N 47°54' W 006°48'6 6.0 280 / 101014.3 17.7 18.7
2017-Aug-22 13:00N 47°48' W 006°48'7 7.2 280 / 101014.3 17.9 18.7
2017-Aug-22 12:00N 47°42' W 006°42'0 0.0 260 / 111014.1 18.0 18.9
2017-Aug-22 11:00N 47°42' W 006°42'0 0.0 260 / 81014.1 18.4 18.7
2017-Aug-22 10:00N 47°42' W 006°42'6 6.0 200 / 61014.0 18.2 18.7
2017-Aug-22 09:00N 47°48' W 006°42'4 4.0 140 / 91013.8 2.2 18.2 18.5
2017-Aug-22 08:00N 47°48' W 006°36'0 0.0 130 / 121013.4 18.2 18.5
2017-Aug-22 07:00N 47°48' W 006°36'6 6.0 170 / 91013.5 18.5 18.4
2017-Aug-22 06:00N 47°54' W 006°36'0 0.0 110 / 181013.0 18.7 18.4
2017-Aug-22 05:00N 47°54' W 006°36'0 0.0 120 / 131013.3 18.5 18.2
2017-Aug-22 04:00N 47°54' W 006°36'6 6.0 120 / 141013.5 18.4 18.2
2017-Aug-22 03:00N 47°48' W 006°36'0 0.0 110 / 131014.6 18.7 18.5
2017-Aug-22 02:00N 47°48' W 006°36'7 7.2 090 / 141014.5 17.9 18.5
2017-Aug-22 01:00N 47°42' W 006°42'0 0.0 090 / 121015.9 17.7 18.7
2017-Aug-22 00:00N 47°42' W 006°42'6 6.0 080 / 101016.7 17.7 18.7
2017-Aug-21 23:00N 47°36' W 006°42'4 4.0 080 / 91017.1 17.4 18.7
2017-Aug-21 22:00N 47°36' W 006°36'4 4.0 080 / 131017.6 18.0 18.7
2017-Aug-21 21:00N 47°36' W 006°30'7 7.2 080 / 131017.8 17.0 18.7
2017-Aug-21 20:00N 47°42' W 006°24'0 0.0 080 / 121018.1 16.7 18.7
2017-Aug-21 19:00N 47°42' W 006°24'6 6.0 070 / 121018.2 16.9 18.7
2017-Aug-21 18:00N 47°48' W 006°24'4 4.0 090 / 111018.4 17.2 18.7
2017-Aug-21 17:00N 47°48' W 006°30'0 0.0 110 / 141019.0 17.2 18.7
2017-Aug-21 16:00N 47°48' W 006°30'6 6.0 120 / 121019.4 17.2 18.7
2017-Aug-21 15:00N 47°42' W 006°30'4 4.0 110 / 131019.7 17.5 18.9
2017-Aug-21 14:00N 47°42' W 006°36'4 4.0 120 / 141020.2 17.2 18.7
2017-Aug-21 13:00N 47°42' W 006°42'0 0.0 120 / 131020.9 17.2 18.7
2017-Aug-21 12:00N 47°42' W 006°42'6 6.0 120 / 131021.5 16.9 18.5
2017-Aug-21 11:00N 47°36' W 006°42'4 4.0 110 / 131022.1 18.4 18.4
2017-Aug-21 10:00N 47°36' W 006°36'0 0.0 110 / 101022.4 17.0 18.5
2017-Aug-21 09:00N 47°36' W 006°36'4 4.0 100 / 71022.5 2.2 16.4 18.5
2017-Aug-21 08:00N 47°36' W 006°30'7 7.2 110 / 81022.8 16.2 18.4
2017-Aug-21 07:00N 47°42' W 006°24'0 0.0 120 / 71022.9 16.2 18.5
2017-Aug-21 06:00N 47°42' W 006°24'6 6.0 170 / 51022.7 16.5 18.7
2017-Aug-21 05:00N 47°48' W 006°24'0 0.0 170 / 31022.9 16.5 18.4
2017-Aug-21 04:00N 47°48' W 006°24'4 4.0 200 / 61023.0 16.7 18.5
2017-Aug-21 03:00N 47°48' W 006°30'6 6.0 200 / 51023.2 16.7 18.4
2017-Aug-21 02:00N 47°42' W 006°30'4 4.0 220 / 81023.6 16.5 18.5
2017-Aug-21 01:00N 47°42' W 006°36'4 4.0 220 / 71024.1 16.5 18.5
2017-Aug-21 00:00N 47°42' W 006°42'0 0.0 230 / 61024.4 17.0 18.5
2017-Aug-20 23:00N 47°42' W 006°42'6 6.0 250 / 61024.8 16.9 18.5
2017-Aug-20 22:00N 47°36' W 006°42'4 4.0 220 / 111025.1 16.7 18.4
2017-Aug-20 21:00N 47°36' W 006°36'4 4.0 200 / 121025.1 17.0 18.5
2017-Aug-20 20:00N 47°36' W 006°30'6 6.0 230 / 91025.2 17.0 18.7
2017-Aug-20 19:00N 47°42' W 006°30'0 0.0 230 / 111024.7 16.9 18.7
2017-Aug-20 18:00N 47°42' W 006°30'7 7.2 240 / 121024.6 16.9 18.5
2017-Aug-20 17:00N 47°48' W 006°24'0 0.0 230 / 151024.3 17.4 18.5
2017-Aug-20 16:00N 47°48' W 006°24'0 0.0 240 / 151024.4 17.5 18.5
2017-Aug-20 15:00N 47°48' W 006°24'0 0.0 240 / 171024.7 17.7 18.5
2017-Aug-20 14:00N 47°48' W 006°24'7 7.2 240 / 181025.0 17.4 18.4
2017-Aug-20 13:00N 47°42' W 006°30'0 0.0 230 / 181025.0 17.7 18.5
2017-Aug-20 12:00N 47°42' W 006°30'6 6.0 220 / 161025.3 17.5 18.7
2017-Aug-20 11:00N 47°36' W 006°30'0 0.0 210 / 191025.5 19.9 18.5
2017-Aug-20 10:00N 47°36' W 006°30'4 4.0 210 / 171025.6 16.2 18.5
2017-Aug-20 09:00N 47°36' W 006°24'0 0.0 200 / 191025.5 2.2 16.7 18.7
2017-Aug-20 08:00N 47°36' W 006°24'4 4.0 220 / 151025.3 17.5 18.7
2017-Aug-20 07:00N 47°36' W 006°18'6 6.0 220 / 151024.9 17.4 18.7
2017-Aug-20 06:00N 47°42' W 006°18'4 4.0 230 / 171024.6 17.217.018.7
2017-Aug-20 05:00N 47°42' W 006°24'6 6.0 220 / 131024.4 17.2 18.5
2017-Aug-20 04:00N 47°48' W 006°24'0 0.0 210 / 141023.9 17.0 18.5
2017-Aug-20 03:00N 47°48' W 006°24'0 0.0 230 / 121024.7 17.016.918.5
2017-Aug-20 02:00N 47°48' W 006°24'6 6.0 210 / 101024.7 16.916.718.5
2017-Aug-20 01:00N 47°42' W 006°24'4 4.0 210 / 91025.2 16.916.718.5
2017-Aug-20 00:00N 47°42' W 006°30'6 6.0 210 / 71025.9 17.216.918.7
2017-Aug-19 23:00N 47°36' W 006°30'0 0.0 230 / 81026.3 16.916.718.5
2017-Aug-19 22:00N 47°36' W 006°30'7 7.2 240 / 71026.4 17.016.418.9
2017-Aug-19 21:00N 47°30' W 006°24'0 0.0 240 / 101026.5 16.916.718.9
2017-Aug-19 20:00N 47°30' W 006°24'4 4.1 240 / 71026.2 16.915.918.9
2017-Aug-19 19:00N 47°30' W 006°18'0 0.0 250 / 71025.9 16.910.718.9
2017-Aug-19 18:00N 47°30' W 006°18'4 4.1 280 / 51025.8 17.010.918.9
2017-Aug-19 17:00N 47°30' W 006°12'   270 / 81025.6 17.210.718.9
Track history (hours):
 
Tides and Currents Weather Stations Pressure Air Temp Water Temp Dewpoint Dewpoint Depression Visibility Wind Speed Wind Dir Waves Ship Positions

Callsign BATFR34 (name unknown)

Last reported at 2017-Aug-29 17:00 UTC. Time now 2017-Dec-14 13:22 UTC.
Position N 47°48' W 004°18'.
Warning: this ship's position is months out of date.

Wind from 330 at 20 knots

Barometer 1013.5 mb
Air temperature 18.9 ° C
Water temperature 19.2 ° C

Date/timePositionNaut miles runAvg speedWind from/ knotsBaromVisibWave heightAir tempDewpointWater temp
2017-Aug-29 17:00N 47°48' W 004°18'1010.1 330 / 201013.5 18.9 19.2
2017-Aug-29 16:00N 47°42' W 004°30'8 8.1 330 / 231013.5 17.4 19.4
2017-Aug-29 15:00N 47°42' W 004°42'8 8.1 330 / 271014.0 17.2 19.2
2017-Aug-29 14:00N 47°42' W 004°54'4 4.0 330 / 241014.3 16.4 18.4
2017-Aug-29 13:00N 47°42' W 005°00'7 7.2 330 / 211014.9 15.9 17.4
2017-Aug-29 12:00N 47°36' W 005°06'0 0.0 340 / 191015.3 2.2 15.9 17.4
2017-Aug-29 11:00N 47°36' W 005°06'4 4.0 340 / 251015.6 16.2 19.0
2017-Aug-29 10:00N 47°36' W 005°12'0 0.0 350 / 191015.6 16.7 19.2
2017-Aug-29 09:00N 47°36' W 005°12'4 4.0 360 / 191015.2 2.2 17.0 18.9
2017-Aug-29 08:00N 47°36' W 005°18'4 4.0 010 / 191014.8 16.9 18.9
2017-Aug-29 07:00N 47°36' W 005°24'0 0.0 1015.3 16.7 19.2
2017-Aug-29 06:00N 47°36' W 005°24'4 4.0 010 / 221015.3 16.9 19.4
2017-Aug-29 05:00N 47°36' W 005°30'0 0.0 350 / 251015.1 17.2 19.4
2017-Aug-29 04:00N 47°36' W 005°30'4 4.0 360 / 191015.4 17.4 19.5
2017-Aug-29 03:00N 47°36' W 005°36'0 0.0 010 / 181015.1 17.9 19.7
2017-Aug-29 02:00N 47°36' W 005°36'4 4.0 030 / 161015.3 18.0 19.7
2017-Aug-29 01:00N 47°36' W 005°30'4 4.0 020 / 191015.4 17.9 19.7
2017-Aug-29 00:00N 47°36' W 005°24'0 0.0 020 / 171015.7 17.9 19.7
2017-Aug-28 23:00N 47°36' W 005°24'4 4.0 350 / 211015.8 18.2 19.7
2017-Aug-28 22:00N 47°36' W 005°30'0 0.0 340 / 191015.8 18.2 19.9
2017-Aug-28 21:00N 47°36' W 005°30'7 7.2 360 / 131015.8 18.4 19.7
2017-Aug-28 20:00N 47°42' W 005°36'0 0.0 010 / 141015.8 18.4 19.9
2017-Aug-28 19:00N 47°42' W 005°36'4 4.0 020 / 121015.7 18.4 19.9
2017-Aug-28 18:00N 47°42' W 005°42'6 6.0 020 / 161015.4 2.2 18.5 19.4
2017-Aug-28 17:00N 47°48' W 005°42'0 0.0 020 / 151015.6 18.5 19.4
2017-Aug-28 16:00N 47°48' W 005°42'0 0.0 030 / 141015.8 18.4 19.4
2017-Aug-28 15:00N 47°48' W 005°42'0 0.0 010 / 111016.4 2.2 18.7 19.4
2017-Aug-28 14:00N 47°48' W 005°42'6 6.0 020 / 101016.6 18.7 19.5
2017-Aug-28 13:00N 47°54' W 005°42'0 0.0 030 / 131016.4 18.4 19.5
2017-Aug-28 12:00N 47°54' W 005°42'6 6.0 020 / 141016.5 17.9 19.4
2017-Aug-28 11:00N 48°00' W 005°42'0 0.0 030 / 141016.6 17.9 19.4
2017-Aug-28 10:00N 48°00' W 005°42'6 6.0 040 / 141016.9 17.7 19.4
2017-Aug-28 09:00N 48°06' W 005°42'4 4.0 050 / 131017.0 2.2 17.7 19.2
2017-Aug-28 08:00N 48°06' W 005°48'0 0.0 020 / 141016.7 17.9 19.2
2017-Aug-28 07:00N 48°06' W 005°48'6 6.0 040 / 141016.4 17.9 19.2
2017-Aug-28 06:00N 48°00' W 005°48'4 4.0 040 / 141016.3 17.9 19.2
2017-Aug-28 05:00N 48°00' W 005°54'0 0.0 030 / 141016.0 17.9 19.2
2017-Aug-28 04:00N 48°00' W 005°54'6 6.0 030 / 131016.3 17.9 19.2
2017-Aug-28 03:00N 48°06' W 005°54'4 4.0 050 / 151016.5 17.9 19.4
2017-Aug-28 02:00N 48°06' W 005°48'7 7.2 040 / 151016.7 17.9 19.4
2017-Aug-28 01:00N 48°12' W 005°54'4 4.0 030 / 141017.2 17.9 19.4
2017-Aug-28 00:00N 48°12' W 005°48'6 6.0 030 / 111017.6 17.9 19.4
2017-Aug-27 23:00N 48°18' W 005°48'4 4.0 030 / 161017.5 17.7 19.4
2017-Aug-27 22:00N 48°18' W 005°54'6 6.0 030 / 151017.9 17.9 19.4
2017-Aug-27 21:00N 48°24' W 005°54'4 4.0 030 / 161017.8 17.9 19.4
2017-Aug-27 20:00N 48°24' W 006°00'4 4.0 030 / 161017.5 17.9 19.4
2017-Aug-27 19:00N 48°24' W 006°06'0 0.0 030 / 141017.4 18.2 19.4
2017-Aug-27 18:00N 48°24' W 006°06'7 7.2 040 / 141017.1 18.5 19.4
2017-Aug-27 17:00N 48°18' W 006°12'4 4.0 050 / 131017.5 18.4 19.4
2017-Aug-27 16:00N 48°18' W 006°06'0 0.0 050 / 141017.7 18.4 19.4
2017-Aug-27 15:00N 48°18' W 006°06'4 4.0 050 / 151018.1 2.2 20.4 19.4
2017-Aug-27 14:00N 48°18' W 006°00'4 4.0 030 / 161018.4 20.4 19.4
2017-Aug-27 13:00N 48°18' W 005°54'6 6.0 040 / 161018.3 22.5 19.4
2017-Aug-27 12:00N 48°24' W 005°54'4 4.0 030 / 111018.3 2.2 18.2 19.4
2017-Aug-27 11:00N 48°24' W 005°48'4 4.0 050 / 121018.2 17.7 19.4
2017-Aug-27 10:00N 48°24' W 005°54'6 6.0 020 / 131018.1 17.7 19.2
2017-Aug-27 09:00N 48°30' W 005°54'4 4.0 040 / 121017.6 17.5 19.2
2017-Aug-27 08:00N 48°30' W 006°00'4 4.0 080 / 111017.3 17.7 19.0
2017-Aug-27 07:00N 48°30' W 006°06'6 6.0 060 / 101017.4 17.7 19.0
2017-Aug-27 06:00N 48°24' W 006°06'4 4.0 060 / 81017.4 17.7 19.0
2017-Aug-27 05:00N 48°24' W 006°00'0 0.0 050 / 81017.4 17.5 19.2
2017-Aug-27 04:00N 48°24' W 006°00'6 6.0 040 / 101017.4 17.5 19.2
2017-Aug-27 03:00N 48°30' W 006°00'0 0.0 040 / 111018.0 21.0 19.2
2017-Aug-27 02:00N 48°30' W 006°00'6 6.0 050 / 131018.0 17.5 19.2
2017-Aug-27 01:00N 48°36' W 006°00'0 0.0 040 / 131018.0 17.4 19.2
2017-Aug-27 00:00N 48°36' W 006°00'0 0.0 030 / 121017.8 17.2 19.4
2017-Aug-26 23:00N 48°36' W 006°00'7 7.2 040 / 101017.5 17.2 19.4
2017-Aug-26 22:00N 48°42' W 006°06'6 6.0 050 / 121017.5 17.0 19.5
2017-Aug-26 21:00N 48°48' W 006°06'0 0.0 040 / 51017.9 16.9 19.2
2017-Aug-26 20:00N 48°48' W 006°06'4 4.0 070 / 51017.7 17.0 19.2
2017-Aug-26 19:00N 48°48' W 006°12'6 6.0 080 / 61017.3 17.2 19.4
2017-Aug-26 18:00N 48°42' W 006°12'4 4.0 080 / 71017.1 17.2 19.4
2017-Aug-26 17:00N 48°42' W 006°18'0 0.0 080 / 71017.0 17.4 19.5
2017-Aug-26 16:00N 48°42' W 006°18'7 7.2 110 / 71017.0 17.4 19.4
2017-Aug-26 15:00N 48°36' W 006°12'6 6.0 080 / 101017.2 17.2 19.5
2017-Aug-26 14:00N 48°42' W 006°12'4 4.0 080 / 81017.6 17.2 19.4
2017-Aug-26 13:00N 48°42' W 006°06'6 6.0 080 / 101017.4 17.0 19.4
2017-Aug-26 12:00N 48°48' W 006°06'0 0.0 080 / 81017.7 5.4 17.2 19.2
2017-Aug-26 11:00N 48°48' W 006°06'7 7.2 100 / 101017.7 16.9 19.0
2017-Aug-26 10:00N 48°54' W 006°00'0 0.0 090 / 111017.3 16.7 18.9
2017-Aug-26 09:00N 48°54' W 006°00'0 0.0 110 / 91016.9 5.4 16.7-15.118.9
2017-Aug-26 08:00N 48°54' W 006°00'7 7.2 100 / 81016.9 16.5 8.218.9
2017-Aug-26 07:00N 48°48' W 006°06'4 4.0 090 / 71016.4 16.416.218.9
2017-Aug-26 06:00N 48°48' W 006°12'0 0.0 100 / 71016.1 16.4 18.9
2017-Aug-26 05:00N 48°48' W 006°12'7 7.2 110 / 71016.0 16.4 19.0
2017-Aug-26 04:00N 48°42' W 006°18'0 0.0 110 / 61016.2 16.4 19.2
2017-Aug-26 03:00N 48°42' W 006°18'0 0.0 110 / 71016.4 16.5 19.2
2017-Aug-26 02:00N 48°42' W 006°18'6 6.0 130 / 71016.7 16.4 19.0
2017-Aug-26 01:00N 48°36' W 006°18'7 7.2 120 / 81016.9 16.4 19.2
2017-Aug-26 00:00N 48°42' W 006°12'0 0.0 120 / 81017.0 16.4 19.4
2017-Aug-25 23:00N 48°42' W 006°12'6 6.0 090 / 91017.1 16.4 19.4
2017-Aug-25 22:00N 48°48' W 006°12'0 0.0 100 / 71017.1 16.7 19.4
2017-Aug-25 21:00N 48°48' W 006°12'4 4.0 140 / 51017.1 16.7 19.2
2017-Aug-25 20:00N 48°48' W 006°18'6 6.0 130 / 51016.8 16.4 19.4
2017-Aug-25 19:00N 48°54' W 006°18'4 3.9 120 / 41016.5 16.5 19.4
2017-Aug-25 18:00N 48°54' W 006°24'7 7.2 150 / 51016.5 16.5 19.5
2017-Aug-25 17:00N 48°48' W 006°30'0 0.0 150 / 41016.5 17.2 19.4
2017-Aug-25 16:00N 48°48' W 006°30'7 7.2 170 / 51016.6 17.0 19.5
2017-Aug-25 15:00N 48°42' W 006°36'4 4.0 160 / 41016.8 18.0 19.4
2017-Aug-25 14:00N 48°42' W 006°30'4 4.0 160 / 51017.0 17.9 19.4
2017-Aug-25 13:00N 48°42' W 006°24'0 0.0 180 / 61017.3 17.0 19.4
2017-Aug-25 12:00N 48°42' W 006°24'4 4.0 140 / 71017.1 17.2 19.2
2017-Aug-25 11:00N 48°42' W 006°18'4 4.0 140 / 71017.4 17.0 19.2
2017-Aug-25 10:00N 48°42' W 006°12'7 7.2 130 / 71017.4 16.9 19.0
2017-Aug-25 09:00N 48°48' W 006°18'0 0.0 150 / 61017.2 16.7 18.9
2017-Aug-25 08:00N 48°48' W 006°18'0 0.0 180 / 51017.1 16.7 18.9
2017-Aug-25 07:00N 48°48' W 006°18'7 7.2 180 / 51016.8 16.7 18.9
2017-Aug-25 06:00N 48°54' W 006°24'7 7.2 180 / 51016.9 16.4 18.9
2017-Aug-25 05:00N 48°48' W 006°30'0 0.0 180 / 71016.9 16.7 18.9
2017-Aug-25 04:00N 48°48' W 006°30'6 6.0 150 / 71017.2 16.7 18.9
2017-Aug-25 03:00N 48°42' W 006°30'0 0.0 150 / 31017.5 16.4 19.0
2017-Aug-25 02:00N 48°42' W 006°30'4 4.0 150 / 31018.0 16.4 19.0
2017-Aug-25 01:00N 48°42' W 006°24'4 4.0 160 / 31018.3 16.5 18.9
2017-Aug-25 00:00N 48°42' W 006°18'0 0.0 160 / 31018.7 16.7 19.4
2017-Aug-24 23:00N 48°42' W 006°18'6 6.0 270 / 11018.9 16.7 19.4
2017-Aug-24 22:00N 48°48' W 006°18'0 0.0 260 / 31019.0 16.9 19.7
2017-Aug-24 21:00N 48°48' W 006°18'7 7.2 250 / 31019.1 16.9 19.5
2017-Aug-24 20:00N 48°54' W 006°24'0 0.0 250 / 31018.9 16.9 19.7
2017-Aug-24 19:00N 48°54' W 006°24'7 7.2 260 / 41018.5 17.717.519.7
2017-Aug-24 18:00N 48°48' W 006°30'0 0.0 240 / 51018.4 5.4 17.5 19.5
2017-Aug-24 17:00N 48°48' W 006°30'4 4.0 230 / 41018.6 18.518.419.2
2017-Aug-24 16:00N 48°48' W 006°36'6 6.0 220 / 31019.0 18.217.919.9
2017-Aug-24 15:00N 48°42' W 006°36'4 4.0 220 / 41019.4 5.4 17.4 19.7
2017-Aug-24 14:00N 48°42' W 006°30'0 0.0 320 / 21019.6 17.2 19.5
2017-Aug-24 13:00N 48°42' W 006°30'4 4.0 330 / 31019.8 17.417.219.4
2017-Aug-24 12:00N 48°42' W 006°24'4 4.0 330 / 41019.6 17.217.019.2
2017-Aug-24 11:00N 48°42' W 006°18'0 0.0 310 / 51019.6 17.517.418.9
2017-Aug-24 10:00N 48°42' W 006°18'6 6.0 300 / 61019.4 17.0 18.9
2017-Aug-24 09:00N 48°48' W 006°18'0 0.0 290 / 71019.1 17.4 18.9
2017-Aug-24 08:00N 48°48' W 006°18'0 0.0 290 / 71018.8 17.5 18.7
2017-Aug-24 07:00N 48°48' W 006°18'4 4.0 290 / 91018.3 16.9 18.7
2017-Aug-24 06:00N 48°48' W 006°24'0 0.0 290 / 81018.1 16.9 18.7
2017-Aug-24 05:00N 48°48' W 006°24'6 6.0 280 / 121017.9 16.7 18.7
2017-Aug-24 04:00N 48°42' W 006°24'0 0.0 230 / 81018.0 16.9 18.7
2017-Aug-24 03:00N 48°42' W 006°24'6 6.0 270 / 91018.4 16.9 18.7
2017-Aug-24 02:00N 48°36' W 006°24'0 0.0 250 / 81018.6 16.7 18.9
2017-Aug-24 01:00N 48°36' W 006°24'0 0.0 270 / 81018.9 16.9 18.9
2017-Aug-24 00:00N 48°36' W 006°24'4 4.0 270 / 81019.1 17.0 18.7
2017-Aug-23 23:00N 48°36' W 006°18'0 0.0 300 / 81019.2 17.0 18.9
2017-Aug-23 22:00N 48°36' W 006°18'7 7.2 280 / 81019.2 17.2 18.9
2017-Aug-23 21:00N 48°30' W 006°24'1010.0 280 / 91018.9 17.0 18.9
2017-Aug-23 20:00N 48°24' W 006°36'7 7.2 280 / 121018.6 17.2 19.0
2017-Aug-23 19:00N 48°18' W 006°42'1312.6 270 / 121018.3 17.2 19.0
2017-Aug-23 18:00N 48°06' W 006°48'7 7.2 270 / 91018.3 17.4 18.9
2017-Aug-23 17:00N 48°00' W 006°54'6 6.0 260 / 111018.4 17.7 18.7
2017-Aug-23 16:00N 47°54' W 006°54'0 0.0 250 / 91018.4 17.7 18.7
2017-Aug-23 15:00N 47°54' W 006°54'6 6.0 240 / 91018.8 5.4 17.7 18.5
2017-Aug-23 14:00N 47°48' W 006°54'0 0.0 240 / 71019.0 17.9 18.9
2017-Aug-23 13:00N 47°48' W 006°54'0 0.0 240 / 71019.0 17.7 18.7
2017-Aug-23 12:00N 47°48' W 006°54'4 4.0 250 / 71019.1 17.7 18.5
2017-Aug-23 11:00N 47°48' W 006°48'0 0.0 250 / 61019.1 17.7 18.5
2017-Aug-23 10:00N 47°48' W 006°48'0 0.0 270 / 81019.0 17.2 18.5
2017-Aug-23 09:00N 47°48' W 006°48'6 6.0 280 / 91018.4 17.0 18.4
2017-Aug-23 08:00N 47°54' W 006°48'6 6.0 290 / 121018.0 16.9 18.4
2017-Aug-23 07:00N 48°00' W 006°48'0 0.0 290 / 101017.1 16.9 18.4
2017-Aug-23 06:00N 48°00' W 006°48'6 6.0 270 / 101016.8 17.0 18.4
2017-Aug-23 05:00N 48°06' W 006°48'7 7.2 260 / 131016.3 16.9 18.5
2017-Aug-23 04:00N 48°00' W 006°54'0 0.0 250 / 161016.2 17.0 18.4
2017-Aug-23 03:00N 48°00' W 006°54'6 6.0 260 / 121016.3 17.0 18.4
2017-Aug-23 02:00N 47°54' W 006°54'0 0.0 260 / 121016.6 17.0 18.4
2017-Aug-23 01:00N 47°54' W 006°54'6 6.0 270 / 141016.8 16.9 18.4
2017-Aug-23 00:00N 47°48' W 006°54'0 0.0 270 / 121016.9 16.9 18.4
2017-Aug-22 23:00N 47°48' W 006°54'4 4.0 270 / 131016.9 17.0 18.2
2017-Aug-22 22:00N 47°48' W 006°48'0 0.0 300 / 131016.8 17.0 18.4
2017-Aug-22 21:00N 47°48' W 006°48'0 0.0 300 / 181016.4 18.4 18.5
2017-Aug-22 20:00N 47°48' W 006°48'6 6.0 300 / 191015.6 19.2 18.5
2017-Aug-22 19:00N 47°54' W 006°48'6 6.0 280 / 131015.0 17.5 18.5
2017-Aug-22 18:00N 48°00' W 006°48'0 0.0 280 / 131014.7 0.5 17.5 18.5
2017-Aug-22 17:00N 48°00' W 006°48'0 0.0 270 / 101014.3 17.9 18.5
2017-Aug-22 16:00N 48°00' W 006°48'6 6.0 260 / 141014.0 17.5 18.5
2017-Aug-22 15:00N 47°54' W 006°48'0 0.0 260 / 131014.1 2.2 17.5 18.5
2017-Aug-22 14:00N 47°54' W 006°48'6 6.0 280 / 101014.3 17.7 18.7
2017-Aug-22 13:00N 47°48' W 006°48'7 7.2 280 / 101014.3 17.9 18.7
2017-Aug-22 12:00N 47°42' W 006°42'0 0.0 260 / 111014.1 18.0 18.9
2017-Aug-22 11:00N 47°42' W 006°42'0 0.0 260 / 81014.1 18.4 18.7
2017-Aug-22 10:00N 47°42' W 006°42'6 6.0 200 / 61014.0 18.2 18.7
2017-Aug-22 09:00N 47°48' W 006°42'4 4.0 140 / 91013.8 2.2 18.2 18.5
2017-Aug-22 08:00N 47°48' W 006°36'0 0.0 130 / 121013.4 18.2 18.5
2017-Aug-22 07:00N 47°48' W 006°36'6 6.0 170 / 91013.5 18.5 18.4
2017-Aug-22 06:00N 47°54' W 006°36'0 0.0 110 / 181013.0 18.7 18.4
2017-Aug-22 05:00N 47°54' W 006°36'0 0.0 120 / 131013.3 18.5 18.2
2017-Aug-22 04:00N 47°54' W 006°36'6 6.0 120 / 141013.5 18.4 18.2
2017-Aug-22 03:00N 47°48' W 006°36'0 0.0 110 / 131014.6 18.7 18.5
2017-Aug-22 02:00N 47°48' W 006°36'7 7.2 090 / 141014.5 17.9 18.5
2017-Aug-22 01:00N 47°42' W 006°42'0 0.0 090 / 121015.9 17.7 18.7
2017-Aug-22 00:00N 47°42' W 006°42'6 6.0 080 / 101016.7 17.7 18.7
2017-Aug-21 23:00N 47°36' W 006°42'4 4.0 080 / 91017.1 17.4 18.7
2017-Aug-21 22:00N 47°36' W 006°36'4 4.0 080 / 131017.6 18.0 18.7
2017-Aug-21 21:00N 47°36' W 006°30'7 7.2 080 / 131017.8 17.0 18.7
2017-Aug-21 20:00N 47°42' W 006°24'0 0.0 080 / 121018.1 16.7 18.7
2017-Aug-21 19:00N 47°42' W 006°24'6 6.0 070 / 121018.2 16.9 18.7
2017-Aug-21 18:00N 47°48' W 006°24'4 4.0 090 / 111018.4 17.2 18.7
2017-Aug-21 17:00N 47°48' W 006°30'0 0.0 110 / 141019.0 17.2 18.7
2017-Aug-21 16:00N 47°48' W 006°30'6 6.0 120 / 121019.4 17.2 18.7
2017-Aug-21 15:00N 47°42' W 006°30'4 4.0 110 / 131019.7 17.5 18.9
2017-Aug-21 14:00N 47°42' W 006°36'4 4.0 120 / 141020.2 17.2 18.7
2017-Aug-21 13:00N 47°42' W 006°42'0 0.0 120 / 131020.9 17.2 18.7
2017-Aug-21 12:00N 47°42' W 006°42'6 6.0 120 / 131021.5 16.9 18.5
2017-Aug-21 11:00N 47°36' W 006°42'4 4.0 110 / 131022.1 18.4 18.4
2017-Aug-21 10:00N 47°36' W 006°36'0 0.0 110 / 101022.4 17.0 18.5
2017-Aug-21 09:00N 47°36' W 006°36'4 4.0 100 / 71022.5 2.2 16.4 18.5
2017-Aug-21 08:00N 47°36' W 006°30'7 7.2 110 / 81022.8 16.2 18.4
2017-Aug-21 07:00N 47°42' W 006°24'0 0.0 120 / 71022.9 16.2 18.5
2017-Aug-21 06:00N 47°42' W 006°24'6 6.0 170 / 51022.7 16.5 18.7
2017-Aug-21 05:00N 47°48' W 006°24'0 0.0 170 / 31022.9 16.5 18.4
2017-Aug-21 04:00N 47°48' W 006°24'4 4.0 200 / 61023.0 16.7 18.5
2017-Aug-21 03:00N 47°48' W 006°30'6 6.0 200 / 51023.2 16.7 18.4
2017-Aug-21 02:00N 47°42' W 006°30'4 4.0 220 / 81023.6 16.5 18.5
2017-Aug-21 01:00N 47°42' W 006°36'4 4.0 220 / 71024.1 16.5 18.5
2017-Aug-21 00:00N 47°42' W 006°42'0 0.0 230 / 61024.4 17.0 18.5
2017-Aug-20 23:00N 47°42' W 006°42'6 6.0 250 / 61024.8 16.9 18.5
2017-Aug-20 22:00N 47°36' W 006°42'4 4.0 220 / 111025.1 16.7 18.4
2017-Aug-20 21:00N 47°36' W 006°36'4 4.0 200 / 121025.1 17.0 18.5
2017-Aug-20 20:00N 47°36' W 006°30'6 6.0 230 / 91025.2 17.0 18.7
2017-Aug-20 19:00N 47°42' W 006°30'0 0.0 230 / 111024.7 16.9 18.7
2017-Aug-20 18:00N 47°42' W 006°30'7 7.2 240 / 121024.6 16.9 18.5
2017-Aug-20 17:00N 47°48' W 006°24'0 0.0 230 / 151024.3 17.4 18.5
2017-Aug-20 16:00N 47°48' W 006°24'0 0.0 240 / 151024.4 17.5 18.5
2017-Aug-20 15:00N 47°48' W 006°24'0 0.0 240 / 171024.7 17.7 18.5
2017-Aug-20 14:00N 47°48' W 006°24'7 7.2 240 / 181025.0 17.4 18.4
2017-Aug-20 13:00N 47°42' W 006°30'0 0.0 230 / 181025.0 17.7 18.5
2017-Aug-20 12:00N 47°42' W 006°30'6 6.0 220 / 161025.3 17.5 18.7
2017-Aug-20 11:00N 47°36' W 006°30'0 0.0 210 / 191025.5 19.9 18.5
2017-Aug-20 10:00N 47°36' W 006°30'4 4.0 210 / 171025.6 16.2 18.5
2017-Aug-20 09:00N 47°36' W 006°24'0 0.0 200 / 191025.5 2.2 16.7 18.7
2017-Aug-20 08:00N 47°36' W 006°24'4 4.0 220 / 151025.3 17.5 18.7
2017-Aug-20 07:00N 47°36' W 006°18'6 6.0 220 / 151024.9 17.4 18.7
2017-Aug-20 06:00N 47°42' W 006°18'4 4.0 230 / 171024.6 17.217.018.7
2017-Aug-20 05:00N 47°42' W 006°24'6 6.0 220 / 131024.4 17.2 18.5
2017-Aug-20 04:00N 47°48' W 006°24'0 0.0 210 / 141023.9 17.0 18.5
2017-Aug-20 03:00N 47°48' W 006°24'0 0.0 230 / 121024.7 17.016.918.5
2017-Aug-20 02:00N 47°48' W 006°24'6 6.0 210 / 101024.7 16.916.718.5
2017-Aug-20 01:00N 47°42' W 006°24'4 4.0 210 / 91025.2 16.916.718.5
2017-Aug-20 00:00N 47°42' W 006°30'6 6.0 210 / 71025.9 17.216.918.7
2017-Aug-19 23:00N 47°36' W 006°30'0 0.0 230 / 81026.3 16.916.718.5
2017-Aug-19 22:00N 47°36' W 006°30'7 7.2 240 / 71026.4 17.016.418.9
2017-Aug-19 21:00N 47°30' W 006°24'0 0.0 240 / 101026.5 16.916.718.9
2017-Aug-19 20:00N 47°30' W 006°24'4 4.1 240 / 71026.2 16.915.918.9
2017-Aug-19 19:00N 47°30' W 006°18'0 0.0 250 / 71025.9 16.910.718.9
2017-Aug-19 18:00N 47°30' W 006°18'4 4.1 280 / 51025.8 17.010.918.9
2017-Aug-19 17:00N 47°30' W 006°12'   270 / 81025.6 17.210.718.9

Dump ship's entire track history